createdAt,value
2022-08-19T00:00:11.005Z,23.76
2022-08-19T00:02:12.308Z,23.76
2022-08-19T00:04:13.613Z,23.74
2022-08-19T00:06:14.970Z,23.72
2022-08-19T00:08:20.157Z,23.70
2022-08-19T00:10:21.594Z,23.65
2022-08-19T00:12:22.904Z,23.65
2022-08-19T00:14:24.930Z,23.65
2022-08-19T00:16:26.917Z,23.68
2022-08-19T00:18:28.410Z,23.65
2022-08-19T00:20:29.766Z,23.63
2022-08-19T00:22:31.074Z,23.66
2022-08-19T00:24:32.388Z,23.70
2022-08-19T00:26:34.279Z,23.66
2022-08-19T00:28:36.714Z,23.64
2022-08-19T00:30:38.047Z,23.66
2022-08-19T00:32:39.714Z,23.62
2022-08-19T00:34:41.019Z,23.63
2022-08-19T00:36:42.325Z,23.65
2022-08-19T00:38:44.310Z,23.62
2022-08-19T00:40:47.559Z,23.59
2022-08-19T00:42:49.046Z,23.60
2022-08-19T00:44:51.511Z,23.54
2022-08-19T00:46:58.277Z,23.56
2022-08-19T00:48:59.990Z,23.53
2022-08-19T00:51:01.349Z,23.52
2022-08-19T00:53:05.218Z,23.46
2022-08-19T00:55:06.599Z,23.37
2022-08-19T00:57:07.903Z,23.35
2022-08-19T00:59:10.012Z,23.30
2022-08-19T01:01:11.887Z,23.24
2022-08-19T01:03:13.395Z,23.23
2022-08-19T01:05:15.950Z,23.22
2022-08-19T01:07:19.756Z,23.25
2022-08-19T01:09:21.226Z,23.29
2022-08-19T01:11:22.579Z,23.29
2022-08-19T01:13:23.922Z,23.31
2022-08-19T01:15:25.370Z,23.24
2022-08-19T01:17:26.673Z,23.23
2022-08-19T01:19:28.027Z,23.26
2022-08-19T01:21:29.348Z,23.19
2022-08-19T01:23:43.591Z,23.23
2022-08-19T01:25:44.975Z,23.24
2022-08-19T01:27:46.799Z,23.21
2022-08-19T01:29:49.030Z,23.13
2022-08-19T01:31:54.434Z,23.06
2022-08-19T01:33:55.737Z,23.10
2022-08-19T01:35:57.042Z,23.11
2022-08-19T01:37:58.368Z,23.12
2022-08-19T01:39:59.725Z,23.10
2022-08-19T01:42:04.080Z,23.04
2022-08-19T01:44:17.561Z,23.11
2022-08-19T01:46:24.600Z,23.16
2022-08-19T01:48:26.476Z,23.12
2022-08-19T01:50:28.708Z,23.12
2022-08-19T01:52:30.014Z,23.12
2022-08-19T01:54:31.412Z,23.11
2022-08-19T01:56:32.843Z,23.10
2022-08-19T01:58:34.442Z,23.10
2022-08-19T02:00:35.770Z,23.08
2022-08-19T02:02:37.075Z,23.10
2022-08-19T02:04:41.498Z,23.07
2022-08-19T02:06:42.897Z,23.06
2022-08-19T02:08:46.990Z,23.07
2022-08-19T02:10:50.826Z,23.02
2022-08-19T02:12:52.259Z,23.01
2022-08-19T02:14:53.765Z,22.99
2022-08-19T02:16:55.084Z,22.98
2022-08-19T02:18:56.536Z,22.97
2022-08-19T02:20:57.855Z,22.96
2022-08-19T02:22:59.208Z,22.94
2022-08-19T02:25:00.926Z,22.97
2022-08-19T02:27:02.287Z,22.97
2022-08-19T02:29:03.643Z,22.95
2022-08-19T02:31:04.989Z,22.95
2022-08-19T02:33:06.297Z,22.96
2022-08-19T02:35:12.345Z,22.96
2022-08-19T02:37:32.522Z,22.96
2022-08-19T02:39:36.536Z,22.98
2022-08-19T02:41:37.879Z,23.01
2022-08-19T02:43:47.647Z,22.99
2022-08-19T02:46:02.423Z,22.99
2022-08-19T02:48:03.733Z,23.01
2022-08-19T02:50:14.621Z,23.01
2022-08-19T02:52:15.984Z,23.01
2022-08-19T02:54:17.287Z,23.00
2022-08-19T02:56:18.834Z,23.00
2022-08-19T02:58:20.174Z,22.97
2022-08-19T03:00:21.692Z,22.96
2022-08-19T03:02:23.002Z,22.94
2022-08-19T03:04:25.301Z,22.93
2022-08-19T03:06:26.601Z,22.93
2022-08-19T03:08:27.911Z,22.95
2022-08-19T03:10:29.231Z,22.96
2022-08-19T03:12:30.551Z,22.94
2022-08-19T03:14:31.922Z,22.96
2022-08-19T03:16:33.788Z,22.94
2022-08-19T03:18:35.230Z,22.90
2022-08-19T03:20:36.688Z,22.95
2022-08-19T03:22:38.034Z,22.94
2022-08-19T03:24:39.385Z,22.93
2022-08-19T03:26:40.816Z,22.95
2022-08-19T03:28:42.129Z,22.96
2022-08-19T03:30:49.072Z,22.92
2022-08-19T03:32:57.158Z,22.94
2022-08-19T03:34:58.986Z,22.92
2022-08-19T03:37:01.483Z,22.91
2022-08-19T03:39:02.879Z,22.92
2022-08-19T03:41:04.172Z,22.92
2022-08-19T03:43:06.662Z,22.98
2022-08-19T03:45:08.415Z,22.99
2022-08-19T03:47:09.734Z,22.98
2022-08-19T03:49:11.043Z,22.97
2022-08-19T03:51:16.051Z,22.98
2022-08-19T03:53:17.366Z,23.03
2022-08-19T03:55:18.744Z,23.02
2022-08-19T03:57:20.041Z,22.99
2022-08-19T03:59:21.359Z,22.96
2022-08-19T04:01:22.735Z,22.97
2022-08-19T04:03:37.031Z,22.96
2022-08-19T04:05:38.723Z,22.96
2022-08-19T04:07:40.042Z,22.97
2022-08-19T04:09:41.404Z,22.97
2022-08-19T04:11:44.581Z,22.96
2022-08-19T04:13:46.398Z,22.91
2022-08-19T04:15:47.755Z,22.95
2022-08-19T04:17:49.049Z,23.01
2022-08-19T04:19:50.410Z,23.04
2022-08-19T04:21:51.753Z,23.03
2022-08-19T04:23:53.455Z,23.02
2022-08-19T04:25:57.212Z,22.98
2022-08-19T04:27:58.519Z,22.98
2022-08-19T04:29:59.818Z,22.99
2022-08-19T04:32:09.255Z,23.03
2022-08-19T04:34:14.121Z,22.89
2022-08-19T04:36:15.434Z,22.85
2022-08-19T04:38:16.750Z,22.85
2022-08-19T04:40:36.658Z,22.87
2022-08-19T04:42:40.860Z,22.92
2022-08-19T04:44:46.422Z,22.95
2022-08-19T04:46:51.480Z,22.99
2022-08-19T04:48:54.460Z,23.01
2022-08-19T04:50:58.503Z,22.96
2022-08-19T04:52:59.822Z,22.95
2022-08-19T04:55:01.181Z,22.93
2022-08-19T04:57:02.486Z,22.97
2022-08-19T04:59:06.922Z,22.96
2022-08-19T05:01:10.023Z,22.96
2022-08-19T05:03:11.466Z,22.98
2022-08-19T05:05:13.538Z,22.97
2022-08-19T05:07:14.851Z,22.97
2022-08-19T05:09:16.715Z,22.94
2022-08-19T05:11:18.032Z,22.94
2022-08-19T05:13:19.325Z,22.95
2022-08-19T05:15:20.631Z,22.97
2022-08-19T05:17:27.727Z,23.02
2022-08-19T05:19:49.056Z,23.06
2022-08-19T05:22:08.847Z,23.03
2022-08-19T05:24:10.174Z,23.05
2022-08-19T05:26:12.008Z,23.04
2022-08-19T05:28:13.328Z,23.02
2022-08-19T05:30:14.656Z,23.03
2022-08-19T05:32:16.067Z,23.00
2022-08-19T05:34:20.191Z,23.00
2022-08-19T05:36:21.878Z,22.99
2022-08-19T05:38:23.236Z,22.98
2022-08-19T05:40:24.929Z,22.99
2022-08-19T05:42:28.190Z,22.99
2022-08-19T05:44:32.354Z,23.01
2022-08-19T05:46:33.694Z,22.99
2022-08-19T05:48:35.010Z,23.03
2022-08-19T05:50:36.324Z,23.02
2022-08-19T05:52:38.918Z,23.00
2022-08-19T05:54:46.059Z,23.02
2022-08-19T05:56:49.387Z,22.98
2022-08-19T05:58:50.760Z,22.96
2022-08-19T06:00:52.503Z,22.96
2022-08-19T06:02:55.750Z,22.96
2022-08-19T06:04:57.340Z,22.95
2022-08-19T06:06:59.295Z,22.98
2022-08-19T06:09:00.663Z,23.01
2022-08-19T06:11:02.012Z,23.01
2022-08-19T06:13:03.883Z,23.02
2022-08-19T06:15:05.273Z,23.03
2022-08-19T06:17:07.398Z,23.02
2022-08-19T06:19:09.083Z,23.05
2022-08-19T06:21:10.410Z,23.06
2022-08-19T06:23:11.747Z,23.06
2022-08-19T06:25:18.465Z,23.05
2022-08-19T06:27:19.836Z,23.08
2022-08-19T06:29:23.986Z,23.10
2022-08-19T06:31:25.625Z,23.07
2022-08-19T06:33:26.982Z,23.09
2022-08-19T06:35:30.423Z,23.15
2022-08-19T06:37:32.001Z,23.11
2022-08-19T06:39:33.852Z,23.20
2022-08-19T06:41:36.372Z,23.33
2022-08-19T06:43:42.223Z,23.32
2022-08-19T06:45:43.664Z,23.25
2022-08-19T06:47:48.014Z,23.22
2022-08-19T06:49:49.812Z,23.21
2022-08-19T06:51:51.880Z,23.23
2022-08-19T06:53:53.453Z,23.29
2022-08-19T06:56:01.023Z,23.37
2022-08-19T06:58:02.340Z,23.36
2022-08-19T07:00:03.708Z,23.31
2022-08-19T07:02:06.407Z,23.28
2022-08-19T07:04:07.782Z,23.35
2022-08-19T07:06:41.152Z,23.00
2022-08-19T07:08:35.189Z,23.06
2022-08-19T07:10:37.439Z,23.09
2022-08-19T07:12:44.131Z,23.07
2022-08-19T07:14:46.930Z,23.04
2022-08-19T07:16:48.235Z,23.03
2022-08-19T07:18:49.619Z,23.01
2022-08-19T07:20:51.009Z,23.02
2022-08-19T07:22:52.327Z,23.01
2022-08-19T07:24:55.079Z,22.98
2022-08-19T07:26:56.567Z,23.00
2022-08-19T07:28:58.489Z,22.98
2022-08-19T07:30:59.798Z,22.97
2022-08-19T07:33:03.463Z,22.96
2022-08-19T07:35:05.768Z,22.93
2022-08-19T07:37:07.123Z,22.90
2022-08-19T07:39:08.422Z,22.02
2022-08-19T07:41:09.722Z,22.89
2022-08-19T07:43:14.036Z,22.88
2022-08-19T07:45:18.393Z,22.89
2022-08-19T07:47:50.390Z,22.91
2022-08-19T07:49:41.664Z,22.92
2022-08-19T07:51:42.972Z,22.91
2022-08-19T07:53:45.824Z,22.88
2022-08-19T07:55:47.127Z,22.88
2022-08-19T07:57:48.437Z,22.83
2022-08-19T07:59:49.755Z,22.82
2022-08-19T08:01:51.218Z,22.82
2022-08-19T08:04:11.559Z,22.84
2022-08-19T08:06:31.545Z,22.79
2022-08-19T08:08:51.407Z,21.91
2022-08-19T08:10:54.728Z,22.80
2022-08-19T08:13:09.323Z,22.80
2022-08-19T08:15:12.514Z,22.95
2022-08-19T08:17:14.535Z,22.97
2022-08-19T08:19:32.567Z,22.90
2022-08-19T08:21:33.930Z,22.83
2022-08-19T08:23:35.307Z,22.82
2022-08-19T08:25:36.690Z,22.91
2022-08-19T08:27:40.471Z,23.07
2022-08-19T08:29:42.075Z,23.20
2022-08-19T08:31:43.626Z,23.25
2022-08-19T08:33:44.995Z,23.36
2022-08-19T08:35:46.638Z,23.36
2022-08-19T08:37:50.675Z,23.37
2022-08-19T08:39:52.485Z,23.37
2022-08-19T08:41:53.864Z,23.37
2022-08-19T08:43:55.323Z,23.37
2022-08-19T08:45:56.667Z,23.38
2022-08-19T08:47:58.029Z,23.37
2022-08-19T08:49:59.815Z,23.38
2022-08-19T08:52:01.777Z,23.37
2022-08-19T08:54:03.085Z,23.37
2022-08-19T08:56:04.409Z,23.36
2022-08-19T08:58:06.403Z,23.36
2022-08-19T09:00:07.778Z,22.50
2022-08-19T09:02:17.272Z,23.37
2022-08-19T09:04:18.643Z,23.37
2022-08-19T09:06:20.373Z,23.36
2022-08-19T09:08:21.706Z,23.36
2022-08-19T09:10:25.946Z,23.36
2022-08-19T09:12:27.483Z,23.37
2022-08-19T09:14:49.361Z,23.37
2022-08-19T09:16:51.230Z,23.37
2022-08-19T09:18:55.490Z,23.37
2022-08-19T09:20:57.750Z,23.36
2022-08-19T09:22:59.575Z,23.36
2022-08-19T09:25:00.888Z,23.36
2022-08-19T09:27:18.181Z,23.36
2022-08-19T09:29:19.656Z,23.36
2022-08-19T09:31:23.952Z,23.36
2022-08-19T09:33:25.282Z,23.35
2022-08-19T09:35:26.605Z,23.38
2022-08-19T09:37:29.862Z,23.39
2022-08-19T09:39:35.916Z,23.39
2022-08-19T09:41:37.535Z,23.39
2022-08-19T09:43:44.607Z,23.39
2022-08-19T09:45:49.267Z,23.40
2022-08-19T09:47:54.088Z,23.39
2022-08-19T09:49:56.058Z,23.42
2022-08-19T09:51:59.829Z,23.44
2022-08-19T09:54:02.099Z,23.44
2022-08-19T09:56:06.298Z,23.44
2022-08-19T09:58:09.815Z,23.44
2022-08-19T10:00:11.335Z,23.43
2022-08-19T10:02:13.004Z,23.43
2022-08-19T10:04:20.294Z,23.42
2022-08-19T10:06:46.349Z,23.42
2022-08-19T10:08:50.091Z,23.41
2022-08-19T10:10:51.952Z,23.41
2022-08-19T10:12:53.302Z,23.41
2022-08-19T10:14:55.310Z,23.40
2022-08-19T10:16:57.563Z,23.39
2022-08-19T10:19:03.685Z,23.39
2022-08-19T10:21:09.476Z,23.39
2022-08-19T10:23:13.047Z,23.38
2022-08-19T10:25:17.659Z,23.38
2022-08-19T10:27:18.962Z,23.38
2022-08-19T10:29:32.042Z,23.39
2022-08-19T10:32:00.624Z,23.40
2022-08-19T10:33:58.355Z,23.41
2022-08-19T10:36:03.578Z,23.41
2022-08-19T10:38:05.092Z,23.40
2022-08-19T10:40:07.955Z,23.40
2022-08-19T10:42:11.548Z,23.40
2022-08-19T10:44:13.943Z,23.40
2022-08-19T10:46:16.769Z,23.40
2022-08-19T10:48:19.576Z,23.39
2022-08-19T10:50:39.473Z,23.39
2022-08-19T10:52:49.145Z,23.39
2022-08-19T10:55:10.697Z,23.39
2022-08-19T10:57:12.015Z,23.41
2022-08-19T10:59:15.088Z,23.42
2022-08-19T11:01:16.626Z,23.43
2022-08-19T11:03:18.023Z,23.43
2022-08-19T11:05:19.320Z,23.43
2022-08-19T11:07:21.376Z,23.43
2022-08-19T11:09:23.496Z,23.44
2022-08-19T11:11:24.799Z,23.43
2022-08-19T11:13:26.459Z,23.42
2022-08-19T11:15:29.709Z,23.42
2022-08-19T11:17:32.506Z,23.42
2022-08-19T11:19:34.166Z,23.42
2022-08-19T11:21:35.542Z,23.44
2022-08-19T11:23:36.835Z,23.44
2022-08-19T11:25:38.195Z,23.45
2022-08-19T11:27:40.208Z,23.45
2022-08-19T11:29:41.647Z,22.55
2022-08-19T11:31:43.035Z,23.46
2022-08-19T11:33:47.630Z,23.46
2022-08-19T11:35:50.307Z,23.46
2022-08-19T11:37:51.606Z,23.46
2022-08-19T11:39:53.532Z,23.46
2022-08-19T11:41:55.368Z,23.46
2022-08-19T11:43:56.909Z,23.45
2022-08-19T11:45:58.212Z,23.46
2022-08-19T11:47:59.514Z,23.46
2022-08-19T11:50:00.819Z,22.61
2022-08-19T11:52:02.226Z,23.49
2022-08-19T11:54:03.522Z,23.48
2022-08-19T11:56:04.875Z,23.49
2022-08-19T11:58:07.434Z,23.51
2022-08-19T12:00:20.091Z,23.52
2022-08-19T12:02:22.635Z,23.54
2022-08-19T12:04:24.059Z,23.58
2022-08-19T12:06:26.610Z,23.60
2022-08-19T12:08:27.927Z,23.61
2022-08-19T12:10:29.285Z,23.62
2022-08-19T12:12:30.599Z,23.61
2022-08-19T12:14:33.008Z,23.61
2022-08-19T12:16:34.409Z,23.61
2022-08-19T12:18:38.274Z,23.60
2022-08-19T12:20:40.567Z,23.60
2022-08-19T12:22:42.242Z,23.60
2022-08-19T12:24:44.295Z,23.60
2022-08-19T12:26:52.897Z,23.59
2022-08-19T12:28:55.180Z,23.59
2022-08-19T12:30:56.486Z,23.59
2022-08-19T12:32:58.231Z,23.60
2022-08-19T12:34:59.550Z,23.60
2022-08-19T12:37:01.043Z,23.61
2022-08-19T12:39:02.387Z,23.62
2022-08-19T12:41:07.219Z,23.62
2022-08-19T12:43:08.584Z,23.64
2022-08-19T12:45:10.090Z,23.66
2022-08-19T12:47:11.402Z,23.68
2022-08-19T12:49:31.409Z,23.72
2022-08-19T12:51:34.055Z,23.71
2022-08-19T12:53:35.383Z,23.72
2022-08-19T12:55:40.749Z,23.80
2022-08-19T12:57:42.071Z,23.89
2022-08-19T12:59:43.931Z,23.90
2022-08-19T13:01:45.244Z,23.96
2022-08-19T13:03:46.547Z,24.00
2022-08-19T13:05:47.884Z,23.93
2022-08-19T13:07:49.227Z,23.89
2022-08-19T13:09:50.530Z,23.87
2022-08-19T13:11:51.829Z,23.86
2022-08-19T13:13:53.145Z,23.89
2022-08-19T13:15:54.484Z,23.95
2022-08-19T13:17:57.120Z,24.00
2022-08-19T13:19:58.740Z,24.02
2022-08-19T13:22:00.482Z,24.05
2022-08-19T13:24:02.136Z,24.05
2022-08-19T13:26:03.484Z,24.08
2022-08-19T13:28:04.999Z,24.10
2022-08-19T13:30:24.915Z,24.11
2022-08-19T13:32:44.703Z,24.08
2022-08-19T13:34:47.723Z,24.13
2022-08-19T13:36:49.078Z,24.10
2022-08-19T13:38:50.389Z,24.04
2022-08-19T13:40:52.459Z,23.98
2022-08-19T13:42:53.822Z,23.92
2022-08-19T13:44:55.503Z,23.88
2022-08-19T13:46:56.820Z,23.86
2022-08-19T13:48:58.483Z,23.84
2022-08-19T13:50:59.794Z,23.82
2022-08-19T13:53:01.134Z,23.81
2022-08-19T13:55:02.523Z,23.83
2022-08-19T13:57:03.930Z,23.81
2022-08-19T13:59:05.368Z,23.83
2022-08-19T14:01:06.979Z,23.81
2022-08-19T14:03:09.387Z,23.80
2022-08-19T14:05:10.863Z,23.80
2022-08-19T14:07:12.214Z,23.80
2022-08-19T14:09:13.592Z,23.82
2022-08-19T14:11:14.898Z,23.82
2022-08-19T14:13:16.623Z,23.80
2022-08-19T14:15:18.015Z,23.79
2022-08-19T14:17:19.758Z,23.78
2022-08-19T14:19:21.050Z,23.78
2022-08-19T14:21:23.490Z,23.78
2022-08-19T14:23:24.854Z,23.78
2022-08-19T14:25:26.191Z,23.76
2022-08-19T14:27:27.538Z,23.76
2022-08-19T14:29:30.324Z,23.79
2022-08-19T14:31:31.666Z,23.81
2022-08-19T14:33:33.566Z,23.78
2022-08-19T14:35:35.630Z,23.78
2022-08-19T14:37:37.240Z,23.78
2022-08-19T14:39:46.946Z,23.81
2022-08-19T14:41:48.353Z,23.85
2022-08-19T14:43:49.673Z,23.85
2022-08-19T14:45:50.984Z,23.84
2022-08-19T14:47:53.186Z,23.85
2022-08-19T14:49:54.597Z,23.86
2022-08-19T14:51:55.982Z,23.84
2022-08-19T14:53:57.358Z,23.87
2022-08-19T14:55:58.699Z,23.90
2022-08-19T14:58:00.033Z,23.92
2022-08-19T15:00:03.755Z,23.92
2022-08-19T15:02:33.410Z,23.87
2022-08-19T15:04:27.976Z,23.85
2022-08-19T15:06:31.356Z,23.85
2022-08-19T15:08:32.736Z,23.84
2022-08-19T15:10:34.210Z,23.81
2022-08-19T15:12:35.684Z,23.79
2022-08-19T15:14:38.151Z,23.78
2022-08-19T15:16:42.645Z,23.76
2022-08-19T15:18:45.330Z,23.74
2022-08-19T15:20:47.811Z,23.74
2022-08-19T15:22:51.381Z,23.80
2022-08-19T15:24:55.394Z,24.18
2022-08-19T15:26:58.148Z,24.55
2022-08-19T15:29:00.312Z,24.92
2022-08-19T15:31:02.086Z,25.00
2022-08-19T15:33:03.491Z,25.54
2022-08-19T15:35:05.015Z,25.58
2022-08-19T15:37:06.448Z,25.34
2022-08-19T15:39:10.028Z,24.61
2022-08-19T15:41:26.493Z,24.35
2022-08-19T15:43:28.223Z,24.66
2022-08-19T15:45:32.769Z,24.82
2022-08-19T15:47:35.253Z,24.97
2022-08-19T15:49:37.030Z,25.12
2022-08-19T15:51:39.151Z,24.92
2022-08-19T15:53:42.315Z,24.86
2022-08-19T15:55:43.763Z,24.98
2022-08-19T15:58:03.711Z,24.90
2022-08-19T16:00:23.459Z,25.06
2022-08-19T16:02:46.915Z,24.86
2022-08-19T16:05:07.033Z,24.52
2022-08-19T16:07:08.546Z,24.69
2022-08-19T16:09:09.853Z,24.91
2022-08-19T16:11:11.204Z,24.93
2022-08-19T16:13:12.581Z,24.97
2022-08-19T16:15:15.091Z,24.95
2022-08-19T16:17:16.759Z,24.90
2022-08-19T16:19:18.151Z,24.86
2022-08-19T16:21:19.575Z,24.84
2022-08-19T16:23:20.880Z,24.87
2022-08-19T16:25:27.518Z,24.83
2022-08-19T16:27:28.847Z,24.80
2022-08-19T16:29:33.832Z,24.79
2022-08-19T16:31:36.494Z,24.74
2022-08-19T16:33:37.878Z,24.39
2022-08-19T16:35:39.187Z,24.10
2022-08-19T16:37:40.502Z,23.96
2022-08-19T16:39:43.670Z,23.97
2022-08-19T16:41:45.740Z,24.34
2022-08-19T16:43:47.039Z,24.49
2022-08-19T16:45:48.352Z,24.61
2022-08-19T16:47:50.583Z,24.98
2022-08-19T16:49:53.464Z,25.00
2022-08-19T16:51:57.006Z,24.99
2022-08-19T16:53:58.470Z,24.98
2022-08-19T16:55:59.916Z,24.86
2022-08-19T16:58:04.315Z,24.69
2022-08-19T17:00:10.529Z,24.59
2022-08-19T17:02:12.086Z,24.51
2022-08-19T17:04:13.515Z,24.50
2022-08-19T17:06:19.030Z,24.23
2022-08-19T17:08:22.263Z,23.99
2022-08-19T17:10:23.582Z,23.93
2022-08-19T17:12:30.362Z,24.18
2022-08-19T17:14:33.679Z,24.31
2022-08-19T17:16:35.018Z,24.30
2022-08-19T17:18:36.382Z,24.27
2022-08-19T17:20:37.750Z,24.39
2022-08-19T17:22:39.059Z,24.35
2022-08-19T17:24:40.967Z,24.34
2022-08-19T17:26:42.288Z,24.39
2022-08-19T17:28:43.634Z,24.53
2022-08-19T17:30:46.258Z,24.40
2022-08-19T17:32:47.766Z,24.41
2022-08-19T17:34:49.107Z,24.45
2022-08-19T17:36:50.413Z,24.28
2022-08-19T17:38:51.724Z,23.88
2022-08-19T17:40:53.035Z,23.71
2022-08-19T17:42:54.883Z,23.65
2022-08-19T17:44:59.425Z,23.64
2022-08-19T17:47:01.262Z,23.58
2022-08-19T17:49:02.623Z,23.57
2022-08-19T17:51:03.931Z,23.55
2022-08-19T17:53:05.511Z,23.54
2022-08-19T17:55:07.114Z,23.47
2022-08-19T17:57:08.503Z,23.43
2022-08-19T17:59:13.861Z,23.40
2022-08-19T18:01:15.763Z,23.33
2022-08-19T18:03:18.715Z,23.30
2022-08-19T18:05:20.027Z,24.11
2022-08-19T18:07:21.690Z,24.20
2022-08-19T18:09:23.895Z,24.23
2022-08-19T18:11:26.040Z,24.15
2022-08-19T18:13:27.405Z,24.25
2022-08-19T18:15:28.921Z,24.25
2022-08-19T18:17:30.331Z,24.20
2022-08-19T18:19:41.093Z,24.24
2022-08-19T18:21:43.087Z,24.21
2022-08-19T18:23:46.079Z,24.25
2022-08-19T18:25:47.500Z,24.29
2022-08-19T18:27:48.843Z,24.34
2022-08-19T18:29:50.238Z,24.32
2022-08-19T18:31:51.559Z,24.31
2022-08-19T18:33:52.878Z,24.29
2022-08-19T18:35:54.199Z,24.20
2022-08-19T18:37:55.620Z,23.81
2022-08-19T18:40:15.564Z,23.51
2022-08-19T18:42:35.746Z,23.74
2022-08-19T18:44:59.615Z,24.17
2022-08-19T18:47:20.035Z,23.75
2022-08-19T18:49:21.357Z,23.56
2022-08-19T18:51:27.727Z,23.52
2022-08-19T18:53:29.774Z,23.42
2022-08-19T18:55:31.122Z,23.34
2022-08-19T18:57:32.499Z,23.34
2022-08-19T18:59:33.852Z,23.33
2022-08-19T19:01:35.249Z,23.29
2022-08-19T19:03:37.556Z,23.24
2022-08-19T19:05:39.966Z,23.28
2022-08-19T19:07:41.343Z,23.27
2022-08-19T19:09:42.692Z,23.21
2022-08-19T19:11:44.105Z,23.62
2022-08-19T19:13:47.064Z,23.72
2022-08-19T19:15:48.378Z,23.76
2022-08-19T19:17:50.055Z,23.82
2022-08-19T19:19:51.411Z,23.88
2022-08-19T19:21:53.120Z,23.65
2022-08-19T19:23:54.439Z,23.41
2022-08-19T19:25:55.795Z,23.11
2022-08-19T19:27:57.156Z,23.58
2022-08-19T19:29:58.495Z,23.70
2022-08-19T19:31:59.815Z,23.69
2022-08-19T19:34:01.342Z,23.72
2022-08-19T19:36:02.803Z,23.77
2022-08-19T19:38:04.126Z,22.73
2022-08-19T19:40:05.459Z,23.28
2022-08-19T19:42:06.787Z,23.18
2022-08-19T19:44:30.668Z,23.11
2022-08-19T19:46:33.735Z,23.38
2022-08-19T19:48:35.540Z,23.57
2022-08-19T19:50:36.923Z,23.62
2022-08-19T19:52:38.271Z,23.68
2022-08-19T19:54:39.566Z,23.70
2022-08-19T19:56:50.397Z,23.75
2022-08-19T19:58:53.390Z,23.72
2022-08-19T20:00:54.764Z,23.71
2022-08-19T20:02:56.296Z,23.70
2022-08-19T20:04:58.906Z,23.65
2022-08-19T20:07:00.206Z,23.69
2022-08-19T20:09:10.900Z,23.71
2022-08-19T20:11:13.075Z,23.80
2022-08-19T20:13:15.678Z,23.76
2022-08-19T20:15:17.098Z,23.72
2022-08-19T20:17:20.559Z,23.73
2022-08-19T20:19:22.117Z,23.73
2022-08-19T20:21:23.587Z,23.76
2022-08-19T20:23:25.118Z,23.63
2022-08-19T20:25:26.659Z,23.68
2022-08-19T20:27:29.290Z,23.59
2022-08-19T20:29:38.847Z,23.29
2022-08-19T20:31:57.386Z,23.46
2022-08-19T20:34:00.942Z,23.68
2022-08-19T20:36:02.304Z,23.63
2022-08-19T20:38:04.070Z,23.61
2022-08-19T20:40:05.494Z,23.65
2022-08-19T20:42:06.826Z,23.58
2022-08-19T20:44:08.279Z,23.70
2022-08-19T20:46:09.591Z,23.81
2022-08-19T20:48:12.566Z,23.88
2022-08-19T20:50:15.120Z,23.93
2022-08-19T20:52:16.751Z,23.90
2022-08-19T20:54:18.059Z,23.90
2022-08-19T20:56:19.380Z,23.89
2022-08-19T20:58:21.265Z,23.86
2022-08-19T21:00:22.623Z,24.10
2022-08-19T21:02:24.998Z,23.90
2022-08-19T21:04:26.786Z,23.81
2022-08-19T21:06:28.093Z,23.78
2022-08-19T21:08:30.888Z,23.82
2022-08-19T21:10:32.190Z,23.84
2022-08-19T21:12:33.531Z,23.74
2022-08-19T21:14:34.836Z,23.69
2022-08-19T21:16:36.206Z,23.73
2022-08-19T21:18:37.514Z,23.83
2022-08-19T21:20:38.843Z,23.86
2022-08-19T21:22:40.143Z,23.76
2022-08-19T21:24:43.142Z,23.70
2022-08-19T21:26:47.171Z,23.66
2022-08-19T21:28:52.078Z,23.81
2022-08-19T21:30:54.000Z,23.84
2022-08-19T21:32:55.343Z,23.84
2022-08-19T21:34:56.686Z,23.83
2022-08-19T21:36:58.016Z,23.72
2022-08-19T21:38:59.332Z,23.62
2022-08-19T21:41:00.666Z,23.70
2022-08-19T21:43:07.348Z,23.69
2022-08-19T21:45:08.712Z,23.39
2022-08-19T21:47:10.036Z,22.96
2022-08-19T21:49:12.463Z,23.05
2022-08-19T21:51:13.769Z,23.42
2022-08-19T21:53:17.335Z,23.56
2022-08-19T21:55:19.804Z,23.58
2022-08-19T21:57:21.110Z,23.49
2022-08-19T21:59:23.164Z,23.48
2022-08-19T22:01:24.597Z,23.64
2022-08-19T22:03:25.996Z,23.61
2022-08-19T22:05:27.382Z,23.59
2022-08-19T22:07:28.726Z,23.56
2022-08-19T22:09:30.026Z,23.49
2022-08-19T22:11:31.351Z,23.48
2022-08-19T22:13:36.839Z,23.63
2022-08-19T22:15:41.028Z,23.63
2022-08-19T22:17:42.375Z,23.64
2022-08-19T22:19:44.566Z,23.61
2022-08-19T22:21:45.904Z,23.58
2022-08-19T22:23:47.546Z,23.53
2022-08-19T22:25:48.863Z,23.51
2022-08-19T22:27:50.289Z,23.48
2022-08-19T22:29:52.423Z,23.47
2022-08-19T22:31:58.204Z,23.46
2022-08-19T22:34:01.836Z,23.48
2022-08-19T22:36:04.507Z,23.46
2022-08-19T22:38:06.533Z,23.46
2022-08-19T22:40:07.917Z,23.42
2022-08-19T22:42:09.283Z,23.40
2022-08-19T22:44:11.378Z,22.49
2022-08-19T22:46:17.356Z,23.35
2022-08-19T22:48:19.113Z,23.34
2022-08-19T22:50:20.410Z,23.38
2022-08-19T22:52:22.082Z,23.36
2022-08-19T22:54:23.391Z,23.34
2022-08-19T22:56:24.697Z,23.33
2022-08-19T22:58:28.085Z,23.31
2022-08-19T23:00:29.684Z,23.28
2022-08-19T23:02:31.338Z,23.25
2022-08-19T23:04:32.647Z,23.27
2022-08-19T23:06:36.341Z,23.27
2022-08-19T23:08:39.706Z,23.27
2022-08-19T23:10:41.007Z,23.25
2022-08-19T23:12:42.775Z,23.24
2022-08-19T23:14:44.154Z,23.23
2022-08-19T23:16:50.456Z,23.23
2022-08-19T23:18:54.400Z,23.26
2022-08-19T23:20:58.223Z,23.27
2022-08-19T23:22:59.522Z,23.25
2022-08-19T23:25:00.836Z,23.23
2022-08-19T23:27:21.095Z,23.19
2022-08-19T23:29:42.815Z,23.18
2022-08-19T23:31:44.114Z,23.19
2022-08-19T23:33:51.813Z,23.19
2022-08-19T23:35:53.420Z,23.19
2022-08-19T23:37:54.865Z,23.15
2022-08-19T23:39:56.331Z,23.13
2022-08-19T23:41:57.654Z,23.12
2022-08-19T23:43:59.623Z,23.10
2022-08-19T23:46:01.766Z,23.10
2022-08-19T23:48:11.807Z,23.08
2022-08-19T23:50:13.505Z,23.08
2022-08-19T23:52:14.822Z,23.06
2022-08-19T23:54:16.191Z,23.05
2022-08-19T23:56:17.556Z,23.03
2022-08-19T23:58:18.931Z,23.03
